Time;durP1;ratioP1;P1;durP2;ratioP2;P2;SDS_P1;SDS_P2;PMS_P1;PMS_P2;Temp;Humidity;BMP_temperature;BMP_pressure;BME280_temperature;BME280_humidity;BME280_pressure;Samples;Min_cycle;Max_cycle;Signal;HPM_P1;HPM_P2
2021/01/15 00:00:06;;;;;;;6.25;5.18;;;;;;;2.62;73.47;101530.25;695268;28;23646;-59
2021/01/15 00:00:28;;;;;;;6.72;5.07;;;;;;;2.62;73.32;101523.09;692639;28;76526;-57
2021/01/15 00:00:49;;;;;;;6.63;5.18;;;;;;;2.62;73.46;101531.09;694364;28;43462;-56
2021/01/15 00:01:18;;;;;;;7.18;5.60;;;;;;;2.63;73.42;101531.94;695104;28;21508;-62
2021/01/15 00:01:40;;;;;;;5.30;4.78;;;;;;;2.61;73.33;101523.22;688053;28;136628;-56
2021/01/15 00:02:01;;;;;;;6.07;4.45;;;;;;;2.63;73.41;101529.28;690920;28;46398;-57
2021/01/15 00:02:23;;;;;;;6.70;4.40;;;;;;;2.62;73.51;101531.09;691569;28;46500;-59
2021/01/15 00:02:44;;;;;;;6.70;4.20;;;;;;;2.65;73.43;101532.69;692291;28;22494;-60
2021/01/15 00:03:05;;;;;;;6.57;4.60;;;;;;;2.65;73.52;101527.34;692419;28;22410;-61
2021/01/15 00:03:27;;;;;;;6.60;4.65;;;;;;;2.63;73.30;101529.28;693091;28;22429;-57
2021/01/15 00:03:49;;;;;;;5.38;4.70;;;;;;;2.64;73.47;101533.66;694273;28;45311;-60
2021/01/15 00:04:10;;;;;;;5.20;4.72;;;;;;;2.62;73.26;101533.78;693763;28;44151;-60
2021/01/15 00:04:32;;;;;;;6.35;4.63;;;;;;;2.63;73.52;101534.63;694675;28;44557;-59
2021/01/15 00:04:53;;;;;;;5.22;4.30;;;;;;;2.63;73.35;101532.81;696006;28;1094;-61
2021/01/15 00:05:15;;;;;;;5.70;4.35;;;;;;;2.62;73.32;101527.59;694377;28;44468;-60
2021/01/15 00:05:38;;;;;;;5.57;4.43;;;;;;;2.62;73.40;101532.94;695087;28;21532;-61
2021/01/15 00:06:05;;;;;;;4.85;4.30;;;;;;;2.62;73.32;101533.78;693359;28;59171;-58
2021/01/15 00:06:26;;;;;;;4.70;4.20;;;;;;;2.62;73.39;101533.78;691528;28;136881;-58
2021/01/15 00:06:48;;;;;;;5.47;4.85;;;;;;;2.62;73.37;101524.94;694502;28;44409;-59
2021/01/15 00:07:09;;;;;;;6.32;5.05;;;;;;;2.62;73.33;101530.25;695065;28;22304;-59
2021/01/15 00:07:31;;;;;;;4.93;4.43;;;;;;;2.61;73.45;101533.88;693621;28;44420;-61
2021/01/15 00:07:52;;;;;;;4.95;4.50;;;;;;;2.61;73.37;101532.06;695649;28;7395;-57
2021/01/15 00:08:14;;;;;;;4.90;4.40;;;;;;;2.63;73.27;101529.28;695029;28;22492;-62
2021/01/15 00:08:38;;;;;;;5.22;4.40;;;;;;;2.62;73.15;101524.94;695219;28;14917;-62
2021/01/15 00:09:03;;;;;;;4.57;4.18;;;;;;;2.62;73.33;101535.59;693751;28;69262;-59
2021/01/15 00:09:24;;;;;;;5.15;4.32;;;;;;;2.61;73.29;101533.88;692713;28;93076;-64
2021/01/15 00:09:45;;;;;;;6.28;4.50;;;;;;;2.62;73.39;101532.94;695235;28;22488;-61
2021/01/15 00:10:08;;;;;;;7.32;4.85;;;;;;;2.62;73.41;101532.94;694221;28;46347;-58
2021/01/15 00:10:29;;;;;;;5.53;4.55;;;;;;;2.61;73.35;101528.56;694483;28;46499;-61
2021/01/15 00:10:50;;;;;;;5.05;4.50;;;;;;;2.61;73.27;101540.06;694417;28;44385;-62
2021/01/15 00:11:16;;;;;;;6.03;4.57;;;;;;;2.62;73.38;101532.94;695453;28;22413;-59
2021/01/15 00:11:41;;;;;;;6.80;4.65;;;;;;;2.62;73.34;101536.44;690810;28;138791;-62
2021/01/15 00:12:04;;;;;;;5.50;4.43;;;;;;;2.61;73.34;101534.72;693225;28;72753;-62
2021/01/15 00:12:26;;;;;;;5.47;4.47;;;;;;;2.61;73.28;101536.53;693256;28;70203;-55
2021/01/15 00:12:47;;;;;;;5.00;4.47;;;;;;;2.61;73.32;101536.53;695358;28;23491;-60
2021/01/15 00:13:08;;;;;;;5.47;4.50;;;;;;;2.61;73.29;101537.41;695455;28;22470;-59
2021/01/15 00:13:30;;;;;;;5.55;4.30;;;;;;;2.61;73.40;101531.22;694495;28;46340;-60
2021/01/15 00:13:52;;;;;;;5.03;4.20;;;;;;;2.60;73.31;101529.50;694116;28;46367;-57
2021/01/15 00:14:13;;;;;;;5.22;4.72;;;;;;;2.61;73.46;101531.22;694042;28;45218;-58
2021/01/15 00:14:35;;;;;;;5.32;4.80;;;;;;;2.61;73.33;101526.72;695949;28;23486;-63
2021/01/15 00:14:56;;;;;;;5.68;4.60;;;;;;;2.61;73.25;101533.88;695374;28;21562;-64
2021/01/15 00:15:18;;;;;;;4.82;4.20;;;;;;;2.61;73.27;101531.22;694317;28;45277;-63
2021/01/15 00:15:39;;;;;;;6.53;4.30;;;;;;;2.61;73.43;101533.88;695206;28;21622;-64
2021/01/15 00:16:01;;;;;;;5.50;4.32;;;;;;;2.60;73.37;101533.03;694259;28;46342;-63
2021/01/15 00:16:23;;;;;;;4.60;4.18;;;;;;;2.60;73.45;101537.50;695058;28;22382;-64
2021/01/15 00:16:45;;;;;;;6.18;4.82;;;;;;;2.62;73.36;101538.28;694212;28;45309;-64
2021/01/15 00:17:06;;;;;;;5.80;4.60;;;;;;;2.61;73.34;101534.72;694573;28;46353;-64
2021/01/15 00:17:32;;;;;;;7.68;4.80;;;;;;;2.61;73.47;101533.88;695375;28;22390;-64
2021/01/15 00:17:54;;;;;;;5.43;4.75;;;;;;;2.62;73.37;101544.44;691234;28;138014;-64
2021/01/15 00:18:15;;;;;;;5.78;4.57;;;;;;;2.61;73.46;101537.41;695373;28;21554;-63
2021/01/15 00:18:37;;;;;;;5.30;4.55;;;;;;;2.61;73.38;101533.88;691864;28;25132;-64
2021/01/15 00:18:59;;;;;;;4.53;4.10;;;;;;;2.61;73.41;101531.22;692305;28;22415;-64
2021/01/15 00:19:21;;;;;;;5.72;4.50;;;;;;;2.61;73.35;101533.88;693427;28;55919;-63
2021/01/15 00:19:42;;;;;;;7.68;4.90;;;;;;;2.61;73.26;101537.41;693013;28;21514;-64
2021/01/15 00:20:04;;;;;;;6.07;4.60;;;;;;;2.61;73.34;101533.88;692990;28;44474;-64
2021/01/15 00:20:26;;;;;;;6.47;5.10;;;;;;;2.61;73.29;101539.22;693676;28;46103;-63
2021/01/15 00:20:47;;;;;;;6.65;4.68;;;;;;;2.60;73.29;101530.38;696526;28;22547;-63
2021/01/15 00:21:09;;;;;;;4.90;4.35;;;;;;;2.60;73.41;101538.38;695090;28;43942;-63
2021/01/15 00:21:32;;;;;;;5.68;4.80;;;;;;;2.60;73.35;101534.84;693164;28;23462;-63
2021/01/15 00:21:53;;;;;;;5.78;4.40;;;;;;;2.61;73.21;101536.53;692515;28;92568;-63
2021/01/15 00:22:15;;;;;;;6.60;4.35;;;;;;;2.61;73.24;101536.53;694828;28;23431;-63
2021/01/15 00:22:42;;;;;;;5.80;4.30;;;;;;;2.60;73.34;101533.03;693905;28;61230;-63
2021/01/15 00:23:04;;;;;;;6.07;4.68;;;;;;;2.61;73.21;101536.53;694267;28;45377;-62
2021/01/15 00:23:25;;;;;;;7.95;4.68;;;;;;;2.60;73.21;101535.72;693983;28;46411;-63
2021/01/15 00:23:46;;;;;;;5.55;4.60;;;;;;;2.61;73.03;101533.88;694720;28;23477;-64
2021/01/15 00:24:08;;;;;;;6.97;4.50;;;;;;;2.61;73.14;101533.88;692303;28;11879;-63
2021/01/15 00:24:30;;;;;;;6.25;4.47;;;;;;;2.60;73.15;101535.72;691559;28;46310;-63
2021/01/15 00:24:51;;;;;;;5.57;4.82;;;;;;;2.60;73.23;101535.72;692357;28;22491;-63
2021/01/15 00:25:12;;;;;;;6.18;5.03;;;;;;;2.61;73.23;101531.22;691555;28;41199;-64
2021/01/15 00:25:34;;;;;;;5.30;4.63;;;;;;;2.59;73.14;101530.47;692343;28;21556;-63
2021/01/15 00:25:55;;;;;;;4.85;4.40;;;;;;;2.60;73.15;101534.84;692676;28;23586;-64
2021/01/15 00:26:17;;;;;;;5.75;4.70;;;;;;;2.61;73.20;101536.53;694462;28;35004;-63
2021/01/15 00:26:40;;;;;;;4.88;4.38;;;;;;;2.57;73.23;101521.72;693596;28;41938;-64
2021/01/15 00:27:01;;;;;;;5.32;4.60;;;;;;;2.61;73.29;101532.06;693422;28;70345;-63
2021/01/15 00:27:23;;;;;;;6.07;4.75;;;;;;;2.61;73.20;101534.72;694166;28;23536;-64
2021/01/15 00:27:45;;;;;;;5.80;4.57;;;;;;;2.61;73.10;101528.56;693709;28;46461;-64
2021/01/15 00:28:06;;;;;;;5.20;4.55;;;;;;;2.62;73.23;101530.25;694404;28;45281;-63
2021/01/15 00:28:27;;;;;;;7.53;4.57;;;;;;;2.61;73.07;101529.38;695345;28;22228;-63
2021/01/15 00:28:49;;;;;;;7.25;4.70;;;;;;;2.61;73.36;101532.06;693595;28;19189;-64
2021/01/15 00:29:11;;;;;;;7.97;5.05;;;;;;;2.61;73.10;101531.22;692629;28;46290;-64
2021/01/15 00:29:33;;;;;;;6.18;4.72;;;;;;;2.61;73.18;101534.72;692678;28;46318;-64
2021/01/15 00:29:55;;;;;;;5.38;4.80;;;;;;;2.60;73.13;101525.03;692986;28;42251;-64
2021/01/15 00:30:16;;;;;;;5.50;4.60;;;;;;;2.60;73.13;101533.03;693001;28;23490;-64
2021/01/15 00:30:38;;;;;;;5.45;4.53;;;;;;;2.59;73.22;101533.16;693856;28;23483;-64
2021/01/15 00:30:59;;;;;;;4.93;4.43;;;;;;;2.60;73.09;101533.03;694219;28;47435;-63
2021/01/15 00:31:29;;;;;;;5.97;4.50;;;;;;;2.61;72.93;101537.41;691998;28;22280;-63
2021/01/15 00:31:50;;;;;;;5.63;4.68;;;;;;;2.61;73.04;101528.56;688037;28;136188;-63
2021/01/15 00:32:11;;;;;;;5.07;4.57;;;;;;;2.61;73.07;101525.88;691864;28;22398;-63
2021/01/15 00:32:33;;;;;;;5.28;4.50;;;;;;;2.60;73.09;101535.72;692220;28;22383;-64
2021/01/15 00:32:54;;;;;;;5.75;4.40;;;;;;;2.61;73.18;101531.22;691514;28;44375;-64
2021/01/15 00:33:16;;;;;;;6.00;4.78;;;;;;;2.61;73.09;101532.06;694332;28;21575;-63
2021/01/15 00:33:37;;;;;;;7.13;4.82;;;;;;;2.61;73.08;101533.88;694820;28;36397;-64
2021/01/15 00:33:59;;;;;;;5.60;4.65;;;;;;;2.60;73.15;101530.38;695503;28;8587;-64
2021/01/15 00:34:21;;;;;;;5.63;4.43;;;;;;;2.61;73.13;101528.56;690951;28;54929;-65
2021/01/15 00:34:42;;;;;;;5.32;4.25;;;;;;;2.60;73.10;101535.72;692154;28;22407;-65
2021/01/15 00:35:05;;;;;;;6.18;4.70;;;;;;;2.60;73.09;101538.38;692173;28;23513;-64
2021/01/15 00:35:27;;;;;;;5.18;4.40;;;;;;;2.60;73.08;101532.16;690626;28;69563;-64
2021/01/15 00:35:48;;;;;;;5.03;4.38;;;;;;;2.59;73.05;101534.00;691557;28;46338;-65
2021/01/15 00:36:10;;;;;;;6.63;4.80;;;;;;;2.60;73.07;101532.16;693172;28;22384;-64
2021/01/15 00:36:31;;;;;;;5.20;4.70;;;;;;;2.59;73.27;101531.31;694146;28;46263;-65
2021/01/15 00:36:56;;;;;;;4.65;4.20;;;;;;;2.59;73.11;101534.00;694187;28;46378;-64
2021/01/15 00:37:17;;;;;;;7.23;4.60;;;;;;;2.61;73.19;101539.22;692789;28;96199;-64
2021/01/15 00:37:39;;;;;;;6.00;4.30;;;;;;;2.59;73.07;101536.66;694792;28;34737;-64
2021/01/15 00:38:00;;;;;;;5.75;4.07;;;;;;;2.59;72.95;101528.66;695075;28;12575;-64
2021/01/15 00:38:22;;;;;;;6.35;4.47;;;;;;;2.57;73.30;101529.72;694493;28;26228;-63
2021/01/15 00:38:43;;;;;;;5.40;4.53;;;;;;;2.60;73.23;101532.16;694311;28;22575;-64
2021/01/15 00:39:06;;;;;;;5.60;4.22;;;;;;;2.60;73.13;101540.16;695831;28;849;-64
2021/01/15 00:39:30;;;;;;;5.97;4.45;;;;;;;2.59;73.19;101535.81;694988;28;32275;-64
2021/01/15 00:39:52;;;;;;;5.05;4.40;;;;;;;2.59;73.16;101534.00;692128;28;115110;-64
2021/01/15 00:40:14;;;;;;;5.63;4.63;;;;;;;2.60;73.06;101534.84;695310;28;23728;-64
2021/01/15 00:40:36;;;;;;;5.97;4.72;;;;;;;2.60;73.33;101537.50;693513;28;69307;-62
2021/01/15 00:41:00;;;;;;;6.47;4.32;;;;;;;2.59;73.03;101531.31;695373;28;18796;-64
2021/01/15 00:41:22;;;;;;;7.70;4.82;;;;;;;2.59;73.20;101541.16;692005;28;114989;-62
2021/01/15 00:41:45;;;;;;;7.30;4.68;;;;;;;2.58;73.16;101531.44;692256;28;18788;-64
2021/01/15 00:42:09;;;;;;;5.00;4.50;;;;;;;2.58;73.06;101537.59;689879;28;69372;-63
2021/01/15 00:42:33;;;;;;;6.10;4.88;;;;;;;2.59;73.28;101534.00;688444;28;115919;-63
2021/01/15 00:42:54;;;;;;;6.38;4.70;;;;;;;2.59;73.04;101533.16;690293;28;70948;-64
2021/01/15 00:43:15;;;;;;;6.85;4.57;;;;;;;2.59;72.84;101530.47;692401;28;22403;-64
2021/01/15 00:43:37;;;;;;;5.55;4.40;;;;;;;2.59;73.04;101539.31;694397;28;995;-64
2021/01/15 00:43:58;;;;;;;5.53;4.60;;;;;;;2.59;73.03;101535.81;694454;28;35038;-64
2021/01/15 00:44:20;;;;;;;5.70;4.90;;;;;;;2.59;73.09;101534.00;691515;28;21518;-61
2021/01/15 00:44:45;;;;;;;6.70;4.60;;;;;;;2.59;73.12;101533.16;692087;28;22503;-64
2021/01/15 00:45:07;;;;;;;5.00;4.50;;;;;;;2.58;73.11;101532.28;688882;28;113615;-64
2021/01/15 00:45:31;;;;;;;6.07;4.63;;;;;;;2.59;72.99;101538.47;688336;28;33966;-64
2021/01/15 00:45:53;;;;;;;6.78;5.07;;;;;;;2.59;73.14;101538.47;685967;28;105342;-64
2021/01/15 00:46:27;;;;;;;5.82;4.85;;;;;;;2.59;73.11;101533.16;691196;28;953;-64
2021/01/15 00:46:53;;;;;;;5.38;4.55;;;;;;;2.58;72.97;101532.28;687634;28;135968;-64
2021/01/15 00:47:15;;;;;;;7.03;4.90;;;;;;;2.58;73.06;101524.28;688921;28;133887;-64
2021/01/15 00:47:36;;;;;;;7.30;4.63;;;;;;;2.56;73.13;101528.88;691919;28;45067;-64
2021/01/15 00:47:58;;;;;;;7.05;4.53;;;;;;;2.58;73.15;101529.59;689811;28;46417;-64
2021/01/15 00:48:19;;;;;;;6.05;4.53;;;;;;;2.59;73.19;101525.16;690261;28;21528;-64
2021/01/15 00:48:41;;;;;;;6.25;4.55;;;;;;;2.59;73.01;101530.47;689792;28;46292;-64
2021/01/15 00:49:03;;;;;;;6.35;4.63;;;;;;;2.58;73.21;101534.09;690432;28;22435;-64
2021/01/15 00:49:25;;;;;;;6.15;4.47;;;;;;;2.60;73.10;101537.50;686554;28;68493;-64
2021/01/15 00:49:49;;;;;;;5.80;4.60;;;;;;;2.60;73.31;101532.16;690879;28;89801;-64
2021/01/15 00:50:12;;;;;;;5.80;4.30;;;;;;;2.57;73.21;101527.91;690145;28;44539;-63
2021/01/15 00:50:33;;;;;;;6.72;4.68;;;;;;;2.59;73.29;101527.81;689727;28;45062;-64
2021/01/15 00:50:55;;;;;;;5.50;4.70;;;;;;;2.59;73.11;101531.31;689721;28;44398;-63
2021/01/15 00:51:17;;;;;;;5.22;4.72;;;;;;;2.57;73.04;101532.38;692533;28;1213;-63
2021/01/15 00:51:38;;;;;;;5.00;4.40;;;;;;;2.59;73.04;101538.47;689815;28;44855;-63
2021/01/15 00:52:01;;;;;;;6.18;4.32;;;;;;;2.59;73.06;101533.16;688363;28;44376;-64
2021/01/15 00:52:25;;;;;;;4.95;4.43;;;;;;;2.59;72.86;101533.16;685432;28;93049;-65
2021/01/15 00:52:47;;;;;;;5.28;4.78;;;;;;;2.59;72.92;101538.47;686832;28;45301;-64
2021/01/15 00:53:08;;;;;;;6.05;4.80;;;;;;;2.59;73.03;101536.66;687775;28;23782;-63
2021/01/15 00:53:31;;;;;;;5.40;4.38;;;;;;;2.58;72.99;101539.44;684603;28;46862;-64
2021/01/15 00:53:53;;;;;;;6.35;4.60;;;;;;;2.58;72.89;101537.59;689901;28;62605;-64
2021/01/15 00:54:14;;;;;;;6.63;4.47;;;;;;;2.59;73.00;101543.81;693584;28;22419;-64
2021/01/15 00:54:36;;;;;;;5.30;4.47;;;;;;;2.59;72.98;101544.66;693951;28;45547;-64
2021/01/15 00:54:58;;;;;;;5.25;4.10;;;;;;;2.59;73.01;101542.00;693282;28;42129;-64
2021/01/15 00:55:19;;;;;;;6.00;4.53;;;;;;;2.58;72.96;101537.59;694038;28;44943;-64
2021/01/15 00:55:41;;;;;;;5.72;4.35;;;;;;;2.58;73.00;101540.28;697093;28;23476;-63
2021/01/15 00:56:03;;;;;;;5.50;4.45;;;;;;;2.59;72.98;101543.81;694544;28;34719;-63
2021/01/15 00:56:25;;;;;;;5.20;4.70;;;;;;;2.57;73.07;101543.03;694387;28;45750;-63
2021/01/15 00:56:47;;;;;;;5.85;4.63;;;;;;;2.56;72.97;101542.19;690932;28;46421;-64
2021/01/15 00:57:15;;;;;;;7.03;4.70;;;;;;;2.58;73.00;101534.09;690783;28;137327;-64
2021/01/15 00:57:38;;;;;;;6.28;4.63;;;;;;;2.58;72.83;101545.59;692007;28;22396;-64
2021/01/15 00:57:59;;;;;;;4.80;4.25;;;;;;;2.57;72.87;101538.59;688632;28;67508;-64
2021/01/15 00:58:20;;;;;;;5.78;4.38;;;;;;;2.58;72.69;101544.75;690752;28;23430;-63
2021/01/15 00:58:42;;;;;;;4.75;4.30;;;;;;;2.57;72.87;101541.25;691246;28;22189;-64
2021/01/15 00:59:04;;;;;;;5.47;4.93;;;;;;;2.57;72.94;101541.25;687904;28;45148;-64
2021/01/15 00:59:36;;;;;;;6.95;4.57;;;;;;;2.57;72.75;101541.25;687323;28;129725;-63
2021/01/15 01:00:33;;;;;;;6.07;4.53;;;;;;;2.56;72.96;101544.88;689849;28;156628;-63
2021/01/15 01:01:02;;;;;;;6.15;4.60;;;;;;;2.55;72.86;101540.47;690532;28;135989;-63
2021/01/15 01:01:38;;;;;;;4.80;4.30;;;;;;;2.56;72.79;101541.34;686330;28;137948;-65
2021/01/15 01:02:03;;;;;;;4.57;4.07;;;;;;;2.56;72.76;101544.03;687363;28;113150;-65
2021/01/15 01:02:26;;;;;;;4.93;4.43;;;;;;;2.56;72.69;101546.69;684896;28;92292;-65
2021/01/15 01:02:47;;;;;;;5.25;4.75;;;;;;;2.55;72.84;101550.31;688124;28;22399;-63
2021/01/15 01:03:08;;;;;;;5.38;4.65;;;;;;;2.55;72.71;101544.97;688428;28;21546;-63
2021/01/15 01:03:30;;;;;;;5.78;4.63;;;;;;;2.54;72.84;101546.78;688053;28;46235;-64
2021/01/15 01:03:52;;;;;;;5.88;4.50;;;;;;;2.56;72.73;101549.34;690270;28;22508;-63
2021/01/15 01:04:13;;;;;;;5.75;4.30;;;;;;;2.56;72.74;101544.03;691838;28;46163;-63
2021/01/15 01:04:34;;;;;;;6.65;4.55;;;;;;;2.55;72.87;101552.97;695038;28;23952;-63
2021/01/15 01:04:56;;;;;;;5.05;4.55;;;;;;;2.55;72.67;101540.47;693632;28;46380;-64
2021/01/15 01:05:20;;;;;;;5.70;4.43;;;;;;;2.56;72.76;101549.34;694585;28;23515;-64
2021/01/15 01:05:41;;;;;;;5.70;4.22;;;;;;;2.56;72.78;101544.03;692301;28;92416;-63
2021/01/15 01:06:08;;;;;;;6.13;4.95;;;;;;;2.55;72.62;101548.47;694045;28;47208;-63
2021/01/15 01:06:29;;;;;;;6.07;4.82;;;;;;;2.55;72.71;101551.16;691317;28;138011;-64
2021/01/15 01:06:51;;;;;;;5.00;4.50;;;;;;;2.55;72.62;101545.81;693773;28;45199;-62
2021/01/15 01:07:12;;;;;;;5.95;4.65;;;;;;;2.55;72.61;101547.63;695974;28;1091;-63
2021/01/15 01:07:34;;;;;;;6.50;4.90;;;;;;;2.54;72.71;101544.13;694238;28;44677;-63
2021/01/15 01:07:55;;;;;;;7.68;4.82;;;;;;;2.53;72.72;101550.41;695034;28;22530;-64
2021/01/15 01:08:16;;;;;;;7.15;4.55;;;;;;;2.54;72.64;101549.47;695174;28;22400;-64
2021/01/15 01:08:38;;;;;;;6.53;4.47;;;;;;;2.56;72.63;101552.03;694499;28;43570;-63
2021/01/15 01:09:02;;;;;;;7.43;5.10;;;;;;;2.55;72.85;101550.31;695150;28;12134;-63
2021/01/15 01:09:24;;;;;;;6.15;4.90;;;;;;;2.56;72.84;101549.34;691363;28;111778;-63
2021/01/15 01:09:45;;;;;;;5.80;4.75;;;;;;;2.55;72.73;101548.47;695197;28;19743;-63
2021/01/15 01:10:08;;;;;;;7.03;5.45;;;;;;;2.56;72.83;101554.69;694200;28;45251;-62
2021/01/15 01:10:30;;;;;;;9.00;6.40;;;;;;;2.55;72.73;101558.31;694467;28;36919;-63
2021/01/15 01:10:51;;;;;;;8.70;5.97;;;;;;;2.55;72.83;101555.63;694137;28;45660;-63
2021/01/15 01:11:13;;;;;;;8.32;5.60;;;;;;;2.55;72.90;101551.16;695548;28;13623;-63
2021/01/15 01:11:35;;;;;;;6.65;5.00;;;;;;;2.55;72.73;101559.16;693126;28;69405;-63
2021/01/15 01:11:57;;;;;;;6.75;4.85;;;;;;;2.56;72.91;101560.03;694139;28;44389;-63
2021/01/15 01:12:18;;;;;;;6.13;4.50;;;;;;;2.55;72.84;101558.31;694592;28;21511;-63
2021/01/15 01:12:41;;;;;;;6.82;4.78;;;;;;;2.54;72.75;101557.47;694393;28;44394;-63
2021/01/15 01:13:03;;;;;;;6.37;4.90;;;;;;;2.54;72.76;101560.13;693282;28;67691;-64
2021/01/15 01:13:24;;;;;;;5.07;4.43;;;;;;;2.53;72.69;101555.75;695667;28;956;-63
2021/01/15 01:13:45;;;;;;;6.32;4.57;;;;;;;2.53;72.75;101553.06;694354;28;22560;-64
2021/01/15 01:14:07;;;;;;;4.95;4.43;;;;;;;2.53;72.73;101559.25;694203;28;45275;-63
2021/01/15 01:14:28;;;;;;;5.93;4.78;;;;;;;2.54;72.70;101557.47;694946;28;22480;-63
2021/01/15 01:14:50;;;;;;;6.07;4.90;;;;;;;2.54;72.84;101562.78;695199;28;21338;-63
2021/01/15 01:15:13;;;;;;;5.68;4.35;;;;;;;2.53;72.73;101561.91;693852;28;45294;-63
2021/01/15 01:15:34;;;;;;;6.35;4.70;;;;;;;2.53;72.79;101555.75;693388;28;68978;-62
2021/01/15 01:15:55;;;;;;;5.95;4.68;;;;;;;2.53;72.75;101558.41;694447;28;46330;-63
2021/01/15 01:16:18;;;;;;;5.13;4.63;;;;;;;2.53;72.79;101561.06;694999;28;21550;-63
2021/01/15 01:16:39;;;;;;;4.97;4.37;;;;;;;2.53;72.95;101558.41;693276;28;69547;-63
2021/01/15 01:17:02;;;;;;;5.20;4.35;;;;;;;2.52;72.70;101554.91;694415;28;46401;-62
2021/01/15 01:17:25;;;;;;;5.68;4.85;;;;;;;2.53;72.78;101559.25;691839;28;115154;-63
2021/01/15 01:17:47;;;;;;;6.53;5.00;;;;;;;2.51;72.84;101555.84;694143;28;22540;-63
2021/01/15 01:18:09;;;;;;;6.00;4.80;;;;;;;2.53;72.71;101556.59;695508;28;846;-64
2021/01/15 01:18:30;;;;;;;6.15;4.82;;;;;;;2.52;72.71;101557.56;694854;28;23561;-63
2021/01/15 01:18:52;;;;;;;8.00;5.00;;;;;;;2.52;72.86;101557.56;694246;28;45360;-62
2021/01/15 01:19:13;;;;;;;5.32;4.50;;;;;;;2.54;72.80;101562.78;694325;28;46469;-62
2021/01/15 01:19:35;;;;;;;5.13;4.45;;;;;;;2.53;72.86;101561.06;694976;28;22421;-64
2021/01/15 01:19:56;;;;;;;5.28;4.50;;;;;;;2.53;72.84;101563.75;694928;28;22537;-62
2021/01/15 01:20:18;;;;;;;5.85;4.32;;;;;;;2.54;72.78;101560.13;694089;28;41636;-63
2021/01/15 01:20:39;;;;;;;7.55;4.57;;;;;;;2.52;72.85;101560.22;694904;28;22424;-64
2021/01/15 01:21:01;;;;;;;8.63;4.88;;;;;;;2.53;72.72;101567.25;694340;28;46241;-64
2021/01/15 01:21:23;;;;;;;5.88;4.28;;;;;;;2.53;72.72;101558.41;695097;28;22380;-63
2021/01/15 01:21:45;;;;;;;5.00;4.50;;;;;;;2.53;72.87;101561.91;693282;28;69413;-64
2021/01/15 01:22:06;;;;;;;6.72;4.93;;;;;;;2.53;72.65;101564.59;694880;28;22400;-63
2021/01/15 01:22:27;;;;;;;5.70;5.03;;;;;;;2.52;72.69;101562.91;693620;28;44884;-63
2021/01/15 01:22:50;;;;;;;6.45;4.90;;;;;;;2.52;72.64;101562.03;694968;28;22398;-63
2021/01/15 01:23:11;;;;;;;6.50;4.53;;;;;;;2.52;72.69;101564.69;693958;28;45153;-62
2021/01/15 01:23:32;;;;;;;5.25;4.55;;;;;;;2.52;72.66;101565.56;693830;28;46480;-64
2021/01/15 01:23:53;;;;;;;5.28;4.53;;;;;;;2.52;72.68;101564.69;695110;28;21296;-63
2021/01/15 01:24:15;;;;;;;4.82;4.32;;;;;;;2.52;72.88;101564.69;694940;28;16607;-63
2021/01/15 01:24:36;;;;;;;5.93;4.60;;;;;;;2.52;72.60;101567.34;693975;28;44440;-63
2021/01/15 01:24:58;;;;;;;6.32;4.88;;;;;;;2.52;72.69;101565.56;694991;28;22407;-63
2021/01/15 01:25:19;;;;;;;5.85;4.75;;;;;;;2.51;72.62;101568.34;694276;28;45713;-63
2021/01/15 01:25:40;;;;;;;5.65;4.60;;;;;;;2.51;72.79;101563.84;694933;28;21584;-63
2021/01/15 01:26:02;;;;;;;5.80;4.50;;;;;;;2.51;72.85;101565.66;695964;28;1651;-63
2021/01/15 01:26:23;;;;;;;5.85;4.80;;;;;;;2.51;72.61;101565.66;694328;28;45273;-63
2021/01/15 01:26:45;;;;;;;6.90;5.07;;;;;;;2.51;72.58;101568.34;694477;28;21535;-63
2021/01/15 01:27:06;;;;;;;6.07;4.53;;;;;;;2.52;72.67;101567.34;694179;28;45629;-62
2021/01/15 01:27:27;;;;;;;5.45;4.50;;;;;;;2.51;72.79;101569.19;694178;28;22386;-64
2021/01/15 01:27:50;;;;;;;5.28;4.32;;;;;;;2.51;72.72;101574.50;695047;28;22733;-63
2021/01/15 01:28:11;;;;;;;6.05;4.32;;;;;;;2.51;72.69;101569.19;693471;28;69520;-63
2021/01/15 01:28:32;;;;;;;5.45;4.47;;;;;;;2.50;72.71;101567.47;695207;28;22390;-64
2021/01/15 01:28:53;;;;;;;5.28;4.72;;;;;;;2.51;72.54;101566.50;694637;28;22487;-62
2021/01/15 01:29:15;;;;;;;5.63;4.60;;;;;;;2.52;72.67;101567.34;694603;28;23612;-63
2021/01/15 01:29:36;;;;;;;6.28;4.57;;;;;;;2.51;72.56;101565.66;694109;28;35753;-63
2021/01/15 01:29:58;;;;;;;6.20;5.00;;;;;;;2.52;72.72;101575.34;695203;28;15487;-63
2021/01/15 01:30:20;;;;;;;7.40;5.28;;;;;;;2.53;72.54;101569.06;693204;28;41085;-64
2021/01/15 01:30:42;;;;;;;6.22;4.90;;;;;;;2.50;72.69;101572.78;693806;28;45257;-64
2021/01/15 01:31:04;;;;;;;4.80;4.40;;;;;;;2.50;72.61;101570.13;693200;28;61229;-63
2021/01/15 01:31:25;;;;;;;4.78;4.32;;;;;;;2.51;72.66;101573.66;694773;28;22417;-62
2021/01/15 01:31:46;;;;;;;5.45;4.55;;;;;;;2.50;72.63;101571.94;695230;28;19377;-63
2021/01/15 01:32:08;;;;;;;5.65;4.78;;;;;;;2.50;72.68;101564.78;694294;28;46746;-63
2021/01/15 01:32:29;;;;;;;5.95;4.82;;;;;;;2.51;72.67;101565.66;694319;28;23258;-63
2021/01/15 01:32:51;;;;;;;6.20;5.20;;;;;;;2.50;72.51;101572.78;693989;28;22184;-64
2021/01/15 01:33:13;;;;;;;6.57;5.28;;;;;;;2.51;72.58;101571.00;692673;28;67533;-63
2021/01/15 01:33:34;;;;;;;6.32;5.00;;;;;;;2.51;72.64;101568.34;693952;28;44397;-63
2021/01/15 01:33:56;;;;;;;5.55;4.90;;;;;;;2.51;72.54;101565.66;694038;28;46507;-63
2021/01/15 01:34:17;;;;;;;5.40;4.90;;;;;;;2.50;72.66;101569.28;695145;28;10427;-64
2021/01/15 01:34:38;;;;;;;6.45;4.75;;;;;;;2.50;72.61;101571.94;694794;28;22392;-63
2021/01/15 01:34:59;;;;;;;7.22;4.72;;;;;;;2.50;72.50;101577.28;694236;28;23501;-63
2021/01/15 01:35:21;;;;;;;5.65;4.60;;;;;;;2.48;72.66;101574.72;693888;28;46418;-63
2021/01/15 01:35:42;;;;;;;5.32;4.82;;;;;;;2.49;72.52;101571.09;694781;28;22418;-62
2021/01/15 01:36:05;;;;;;;6.38;4.70;;;;;;;2.49;72.58;101580.91;694583;28;39694;-63
2021/01/15 01:36:26;;;;;;;6.93;4.88;;;;;;;2.49;72.55;101572.91;694325;28;44411;-63
2021/01/15 01:36:48;;;;;;;6.60;4.80;;;;;;;2.49;72.54;101578.22;694365;28;33983;-65
2021/01/15 01:37:09;;;;;;;5.40;4.90;;;;;;;2.48;72.65;101580.06;694799;28;23416;-63
2021/01/15 01:37:30;;;;;;;5.82;4.90;;;;;;;2.48;72.50;101574.72;694752;28;22400;-64
2021/01/15 01:37:52;;;;;;;6.18;4.70;;;;;;;2.49;72.57;101583.56;694375;28;46452;-62
2021/01/15 01:38:13;;;;;;;6.65;4.70;;;;;;;2.47;72.52;101575.66;695098;28;21548;-64
2021/01/15 01:38:35;;;;;;;5.45;4.35;;;;;;;2.48;72.49;101582.72;694395;28;43184;-63
2021/01/15 01:38:56;;;;;;;6.40;4.55;;;;;;;2.48;72.54;101584.53;695108;28;23119;-63
2021/01/15 01:39:17;;;;;;;5.70;4.72;;;;;;;2.48;72.63;101585.38;695002;28;22457;-64
2021/01/15 01:39:39;;;;;;;5.05;4.57;;;;;;;2.49;72.62;101586.22;693796;28;46159;-64
2021/01/15 01:40:00;;;;;;;5.72;4.80;;;;;;;2.48;72.63;101584.53;694983;28;22388;-63
2021/01/15 01:40:22;;;;;;;6.80;5.05;;;;;;;2.47;72.44;101573.00;694028;28;44526;-63
2021/01/15 01:40:43;;;;;;;5.32;4.70;;;;;;;2.49;72.58;101588.91;695080;28;21581;-64
2021/01/15 01:41:04;;;;;;;5.50;4.82;;;;;;;2.48;72.74;101581.88;694223;28;45123;-63
2021/01/15 01:41:26;;;;;;;5.90;4.72;;;;;;;2.48;72.60;101589.88;695164;28;21557;-64
2021/01/15 01:41:47;;;;;;;9.18;6.22;;;;;;;2.48;72.52;101588.06;693832;28;45296;-64
2021/01/15 01:42:09;;;;;;;11.68;6.95;;;;;;;2.48;72.56;101587.22;695194;28;22379;-64
2021/01/15 01:42:30;;;;;;;14.48;7.90;;;;;;;2.49;72.51;101580.91;694491;28;21524;-64
2021/01/15 01:42:52;;;;;;;10.73;6.82;;;;;;;2.48;72.72;101588.06;693955;28;45868;-63
2021/01/15 01:43:14;;;;;;;8.73;5.80;;;;;;;2.48;72.69;101589.88;694171;28;45257;-64
2021/01/15 01:43:36;;;;;;;6.38;5.18;;;;;;;2.47;72.57;101589.00;693822;28;45255;-63
2021/01/15 01:43:57;;;;;;;5.90;5.00;;;;;;;2.47;72.67;101583.66;694913;28;18686;-62
2021/01/15 01:44:18;;;;;;;6.45;5.03;;;;;;;2.48;72.61;101584.53;694179;28;38835;-63
2021/01/15 01:44:40;;;;;;;6.45;4.90;;;;;;;2.48;72.63;101581.88;694793;28;22415;-63
2021/01/15 01:45:01;;;;;;;7.18;4.80;;;;;;;2.47;72.67;101583.66;694924;28;21549;-63
2021/01/15 01:45:23;;;;;;;6.28;4.20;;;;;;;2.48;72.45;101584.53;693408;28;46308;-62
2021/01/15 01:45:44;;;;;;;5.28;4.53;;;;;;;2.46;72.54;101581.97;695118;28;22046;-62